sensor_id;sensor_type;location;lat;lon;timestamp;P1;durP1;ratioP1;P2;durP2;ratioP2
71106;SDS011;58763;47.982;11.516;2023-06-24T00:00:56;4.53;;;2.70;;
71106;SDS011;58763;47.982;11.516;2023-06-24T00:03:22;4.35;;;2.22;;
71106;SDS011;58763;47.982;11.516;2023-06-24T00:05:47;5.63;;;2.83;;
71106;SDS011;58763;47.982;11.516;2023-06-24T00:08:15;4.82;;;2.65;;
71106;SDS011;58763;47.982;11.516;2023-06-24T00:10:47;4.47;;;2.50;;
71106;SDS011;58763;47.982;11.516;2023-06-24T00:13:13;4.57;;;2.38;;
71106;SDS011;58763;47.982;11.516;2023-06-24T00:15:40;4.05;;;2.22;;
71106;SDS011;58763;47.982;11.516;2023-06-24T00:18:08;5.10;;;2.63;;
71106;SDS011;58763;47.982;11.516;2023-06-24T00:20:34;5.40;;;3.10;;
71106;SDS011;58763;47.982;11.516;2023-06-24T00:23:00;5.05;;;2.63;;
71106;SDS011;58763;47.982;11.516;2023-06-24T00:25:26;5.20;;;2.75;;
71106;SDS011;58763;47.982;11.516;2023-06-24T00:27:51;5.05;;;2.47;;
71106;SDS011;58763;47.982;11.516;2023-06-24T00:30:17;4.82;;;2.83;;
71106;SDS011;58763;47.982;11.516;2023-06-24T00:32:42;6.50;;;3.10;;
71106;SDS011;58763;47.982;11.516;2023-06-24T00:35:07;5.82;;;3.20;;
71106;SDS011;58763;47.982;11.516;2023-06-24T00:37:33;5.72;;;3.00;;
71106;SDS011;58763;47.982;11.516;2023-06-24T00:39:59;4.97;;;2.85;;
71106;SDS011;58763;47.982;11.516;2023-06-24T00:42:25;5.82;;;3.15;;
71106;SDS011;58763;47.982;11.516;2023-06-24T00:44:50;4.95;;;3.03;;
71106;SDS011;58763;47.982;11.516;2023-06-24T00:47:15;6.15;;;3.10;;
71106;SDS011;58763;47.982;11.516;2023-06-24T00:49:41;5.38;;;3.00;;
71106;SDS011;58763;47.982;11.516;2023-06-24T00:52:10;5.03;;;3.08;;
71106;SDS011;58763;47.982;11.516;2023-06-24T00:54:41;6.40;;;3.30;;
71106;SDS011;58763;47.982;11.516;2023-06-24T00:57:07;5.00;;;3.30;;
71106;SDS011;58763;47.982;11.516;2023-06-24T00:59:33;5.18;;;2.90;;
71106;SDS011;58763;47.982;11.516;2023-06-24T01:01:59;5.40;;;3.28;;
71106;SDS011;58763;47.982;11.516;2023-06-24T01:04:27;5.57;;;3.42;;
71106;SDS011;58763;47.982;11.516;2023-06-24T01:06:53;5.88;;;3.53;;
71106;SDS011;58763;47.982;11.516;2023-06-24T01:09:18;5.97;;;3.63;;
71106;SDS011;58763;47.982;11.516;2023-06-24T01:11:44;8.23;;;3.70;;
71106;SDS011;58763;47.982;11.516;2023-06-24T01:14:10;6.72;;;3.80;;
71106;SDS011;58763;47.982;11.516;2023-06-24T01:19:37;7.30;;;3.83;;
71106;SDS011;58763;47.982;11.516;2023-06-24T01:25:17;7.35;;;4.10;;
71106;SDS011;58763;47.982;11.516;2023-06-24T01:30:56;7.43;;;3.45;;
71106;SDS011;58763;47.982;11.516;2023-06-24T01:33:37;6.18;;;3.72;;
71106;SDS011;58763;47.982;11.516;2023-06-24T01:36:12;5.80;;;3.65;;
71106;SDS011;58763;47.982;11.516;2023-06-24T01:38:46;6.13;;;3.80;;
71106;SDS011;58763;47.982;11.516;2023-06-24T01:41:18;7.32;;;3.88;;
71106;SDS011;58763;47.982;11.516;2023-06-24T01:43:47;8.80;;;3.95;;
71106;SDS011;58763;47.982;11.516;2023-06-24T01:46:19;8.73;;;4.05;;
71106;SDS011;58763;47.982;11.516;2023-06-24T01:48:47;8.93;;;4.20;;
71106;SDS011;58763;47.982;11.516;2023-06-24T01:51:20;6.43;;;4.28;;
71106;SDS011;58763;47.982;11.516;2023-06-24T01:53:52;5.82;;;4.00;;
71106;SDS011;58763;47.982;11.516;2023-06-24T01:56:22;7.03;;;3.80;;
71106;SDS011;58763;47.982;11.516;2023-06-24T01:58:51;5.75;;;3.38;;
71106;SDS011;58763;47.982;11.516;2023-06-24T02:01:18;8.77;;;4.10;;
71106;SDS011;58763;47.982;11.516;2023-06-24T02:03:45;7.18;;;3.58;;
71106;SDS011;58763;47.982;11.516;2023-06-24T02:06:13;6.13;;;3.55;;
71106;SDS011;58763;47.982;11.516;2023-06-24T02:08:39;5.70;;;3.20;;
71106;SDS011;58763;47.982;11.516;2023-06-24T02:11:08;6.45;;;3.78;;
71106;SDS011;58763;47.982;11.516;2023-06-24T02:13:34;7.90;;;4.18;;
71106;SDS011;58763;47.982;11.516;2023-06-24T02:16:02;7.28;;;3.95;;
71106;SDS011;58763;47.982;11.516;2023-06-24T02:18:32;6.18;;;3.55;;
71106;SDS011;58763;47.982;11.516;2023-06-24T02:21:00;6.07;;;3.50;;
71106;SDS011;58763;47.982;11.516;2023-06-24T02:23:28;6.10;;;3.38;;
71106;SDS011;58763;47.982;11.516;2023-06-24T02:25:54;6.60;;;3.95;;
71106;SDS011;58763;47.982;11.516;2023-06-24T02:28:21;6.93;;;3.50;;
71106;SDS011;58763;47.982;11.516;2023-06-24T02:30:47;6.68;;;3.95;;
71106;SDS011;58763;47.982;11.516;2023-06-24T02:33:14;6.32;;;3.80;;
71106;SDS011;58763;47.982;11.516;2023-06-24T02:35:40;6.72;;;3.88;;
71106;SDS011;58763;47.982;11.516;2023-06-24T02:38:07;7.05;;;3.70;;
71106;SDS011;58763;47.982;11.516;2023-06-24T02:40:33;8.20;;;4.13;;
71106;SDS011;58763;47.982;11.516;2023-06-24T02:42:59;6.10;;;3.88;;
71106;SDS011;58763;47.982;11.516;2023-06-24T02:45:25;6.90;;;4.20;;
71106;SDS011;58763;47.982;11.516;2023-06-24T02:47:51;7.13;;;4.00;;
71106;SDS011;58763;47.982;11.516;2023-06-24T02:50:19;6.60;;;4.03;;
71106;SDS011;58763;47.982;11.516;2023-06-24T02:52:45;7.13;;;4.05;;
71106;SDS011;58763;47.982;11.516;2023-06-24T02:55:11;5.57;;;3.72;;
71106;SDS011;58763;47.982;11.516;2023-06-24T02:57:37;7.13;;;4.10;;
71106;SDS011;58763;47.982;11.516;2023-06-24T03:00:04;6.65;;;4.00;;
71106;SDS011;58763;47.982;11.516;2023-06-24T03:02:33;7.75;;;4.20;;
71106;SDS011;58763;47.982;11.516;2023-06-24T03:04:59;5.60;;;3.20;;
71106;SDS011;58763;47.982;11.516;2023-06-24T03:07:27;6.70;;;3.90;;
71106;SDS011;58763;47.982;11.516;2023-06-24T03:09:53;7.15;;;3.78;;
71106;SDS011;58763;47.982;11.516;2023-06-24T03:12:19;6.80;;;4.10;;
71106;SDS011;58763;47.982;11.516;2023-06-24T03:14:44;6.28;;;3.70;;
71106;SDS011;58763;47.982;11.516;2023-06-24T03:17:10;5.93;;;3.75;;
71106;SDS011;58763;47.982;11.516;2023-06-24T03:19:36;6.75;;;4.00;;
71106;SDS011;58763;47.982;11.516;2023-06-24T03:22:03;7.70;;;3.50;;
71106;SDS011;58763;47.982;11.516;2023-06-24T03:24:29;6.53;;;3.85;;
71106;SDS011;58763;47.982;11.516;2023-06-24T03:26:55;6.10;;;3.53;;
71106;SDS011;58763;47.982;11.516;2023-06-24T03:29:25;6.38;;;3.50;;
71106;SDS011;58763;47.982;11.516;2023-06-24T03:31:50;5.60;;;3.60;;
71106;SDS011;58763;47.982;11.516;2023-06-24T03:34:16;6.32;;;3.47;;
71106;SDS011;58763;47.982;11.516;2023-06-24T03:36:44;5.75;;;3.45;;
71106;SDS011;58763;47.982;11.516;2023-06-24T03:39:09;5.78;;;3.70;;
71106;SDS011;58763;47.982;11.516;2023-06-24T03:41:35;7.65;;;3.70;;
71106;SDS011;58763;47.982;11.516;2023-06-24T03:44:00;6.65;;;3.60;;
71106;SDS011;58763;47.982;11.516;2023-06-24T03:46:26;6.85;;;3.80;;
71106;SDS011;58763;47.982;11.516;2023-06-24T03:48:52;6.95;;;3.92;;
71106;SDS011;58763;47.982;11.516;2023-06-24T03:51:18;5.40;;;3.40;;
71106;SDS011;58763;47.982;11.516;2023-06-24T03:53:43;7.32;;;3.97;;
71106;SDS011;58763;47.982;11.516;2023-06-24T03:56:08;6.15;;;3.80;;
71106;SDS011;58763;47.982;11.516;2023-06-24T03:58:34;6.30;;;3.80;;
71106;SDS011;58763;47.982;11.516;2023-06-24T04:01:00;7.38;;;4.00;;
71106;SDS011;58763;47.982;11.516;2023-06-24T04:03:27;6.68;;;3.88;;
71106;SDS011;58763;47.982;11.516;2023-06-24T04:05:56;7.00;;;3.97;;
71106;SDS011;58763;47.982;11.516;2023-06-24T04:08:23;7.90;;;4.25;;
71106;SDS011;58763;47.982;11.516;2023-06-24T04:10:50;6.05;;;3.72;;
71106;SDS011;58763;47.982;11.516;2023-06-24T04:13:16;5.55;;;3.70;;
71106;SDS011;58763;47.982;11.516;2023-06-24T04:15:41;8.38;;;3.92;;
71106;SDS011;58763;47.982;11.516;2023-06-24T04:18:07;7.05;;;4.43;;
71106;SDS011;58763;47.982;11.516;2023-06-24T04:20:33;5.55;;;3.65;;
71106;SDS011;58763;47.982;11.516;2023-06-24T04:22:59;8.13;;;4.10;;
71106;SDS011;58763;47.982;11.516;2023-06-24T04:25:25;6.53;;;3.88;;
71106;SDS011;58763;47.982;11.516;2023-06-24T04:27:51;7.18;;;4.40;;
71106;SDS011;58763;47.982;11.516;2023-06-24T04:30:16;5.82;;;3.97;;
71106;SDS011;58763;47.982;11.516;2023-06-24T04:32:42;6.93;;;3.85;;
71106;SDS011;58763;47.982;11.516;2023-06-24T04:35:08;6.80;;;3.97;;
71106;SDS011;58763;47.982;11.516;2023-06-24T04:37:34;7.15;;;3.85;;
71106;SDS011;58763;47.982;11.516;2023-06-24T04:39:59;5.97;;;3.72;;
71106;SDS011;58763;47.982;11.516;2023-06-24T04:42:25;7.97;;;3.75;;
71106;SDS011;58763;47.982;11.516;2023-06-24T04:44:50;7.18;;;3.60;;
71106;SDS011;58763;47.982;11.516;2023-06-24T04:47:16;5.85;;;3.42;;
71106;SDS011;58763;47.982;11.516;2023-06-24T04:49:43;6.75;;;4.30;;
71106;SDS011;58763;47.982;11.516;2023-06-24T04:52:09;6.32;;;3.75;;
71106;SDS011;58763;47.982;11.516;2023-06-24T04:54:36;9.13;;;3.65;;
71106;SDS011;58763;47.982;11.516;2023-06-24T04:57:01;6.20;;;3.67;;
71106;SDS011;58763;47.982;11.516;2023-06-24T04:59:27;5.03;;;3.25;;
71106;SDS011;58763;47.982;11.516;2023-06-24T05:01:53;6.78;;;3.67;;
71106;SDS011;58763;47.982;11.516;2023-06-24T05:04:18;6.45;;;3.53;;
71106;SDS011;58763;47.982;11.516;2023-06-24T05:06:44;5.72;;;3.28;;
71106;SDS011;58763;47.982;11.516;2023-06-24T05:09:09;6.88;;;4.10;;
71106;SDS011;58763;47.982;11.516;2023-06-24T05:11:39;6.72;;;3.40;;
71106;SDS011;58763;47.982;11.516;2023-06-24T05:14:05;7.53;;;4.03;;
71106;SDS011;58763;47.982;11.516;2023-06-24T05:16:30;5.95;;;3.67;;
71106;SDS011;58763;47.982;11.516;2023-06-24T05:18:56;6.00;;;3.72;;
71106;SDS011;58763;47.982;11.516;2023-06-24T05:21:21;6.10;;;3.67;;
71106;SDS011;58763;47.982;11.516;2023-06-24T05:23:47;5.20;;;3.30;;
71106;SDS011;58763;47.982;11.516;2023-06-24T05:26:12;6.05;;;3.83;;
71106;SDS011;58763;47.982;11.516;2023-06-24T05:28:37;6.35;;;3.90;;
71106;SDS011;58763;47.982;11.516;2023-06-24T05:31:03;6.00;;;3.60;;
71106;SDS011;58763;47.982;11.516;2023-06-24T05:33:28;5.88;;;3.40;;
71106;SDS011;58763;47.982;11.516;2023-06-24T05:35:54;6.32;;;3.72;;
71106;SDS011;58763;47.982;11.516;2023-06-24T05:38:19;6.35;;;3.67;;
71106;SDS011;58763;47.982;11.516;2023-06-24T05:40:45;6.10;;;3.88;;
71106;SDS011;58763;47.982;11.516;2023-06-24T05:43:10;6.85;;;3.90;;
71106;SDS011;58763;47.982;11.516;2023-06-24T05:45:36;6.53;;;3.90;;
71106;SDS011;58763;47.982;11.516;2023-06-24T05:48:02;6.97;;;3.75;;
71106;SDS011;58763;47.982;11.516;2023-06-24T05:50:28;6.10;;;3.40;;
71106;SDS011;58763;47.982;11.516;2023-06-24T05:52:54;5.78;;;3.60;;
71106;SDS011;58763;47.982;11.516;2023-06-24T05:55:19;6.30;;;3.70;;
71106;SDS011;58763;47.982;11.516;2023-06-24T05:57:45;7.85;;;3.88;;
71106;SDS011;58763;47.982;11.516;2023-06-24T06:00:10;7.78;;;3.88;;
71106;SDS011;58763;47.982;11.516;2023-06-24T06:02:36;7.30;;;4.10;;
71106;SDS011;58763;47.982;11.516;2023-06-24T06:05:02;6.40;;;4.15;;
71106;SDS011;58763;47.982;11.516;2023-06-24T06:07:28;5.80;;;3.58;;
71106;SDS011;58763;47.982;11.516;2023-06-24T06:09:53;8.35;;;4.15;;
71106;SDS011;58763;47.982;11.516;2023-06-24T06:12:19;7.00;;;4.15;;
71106;SDS011;58763;47.982;11.516;2023-06-24T06:14:44;6.90;;;4.05;;
71106;SDS011;58763;47.982;11.516;2023-06-24T06:17:10;6.22;;;3.95;;
71106;SDS011;58763;47.982;11.516;2023-06-24T06:19:36;6.97;;;4.40;;
71106;SDS011;58763;47.982;11.516;2023-06-24T06:22:05;7.07;;;3.85;;
71106;SDS011;58763;47.982;11.516;2023-06-24T06:24:30;6.00;;;3.67;;
71106;SDS011;58763;47.982;11.516;2023-06-24T06:26:57;5.45;;;3.53;;
71106;SDS011;58763;47.982;11.516;2023-06-24T06:29:23;8.02;;;4.03;;
71106;SDS011;58763;47.982;11.516;2023-06-24T06:31:49;5.63;;;3.58;;
71106;SDS011;58763;47.982;11.516;2023-06-24T06:34:14;6.95;;;3.95;;
71106;SDS011;58763;47.982;11.516;2023-06-24T06:36:39;7.13;;;3.67;;
71106;SDS011;58763;47.982;11.516;2023-06-24T06:39:05;6.45;;;3.88;;
71106;SDS011;58763;47.982;11.516;2023-06-24T06:41:31;6.90;;;4.00;;
71106;SDS011;58763;47.982;11.516;2023-06-24T06:43:56;5.97;;;3.75;;
71106;SDS011;58763;47.982;11.516;2023-06-24T06:46:21;5.95;;;3.65;;
71106;SDS011;58763;47.982;11.516;2023-06-24T06:48:48;7.00;;;3.92;;
71106;SDS011;58763;47.982;11.516;2023-06-24T06:51:13;7.13;;;3.70;;
71106;SDS011;58763;47.982;11.516;2023-06-24T06:53:38;6.07;;;3.53;;
71106;SDS011;58763;47.982;11.516;2023-06-24T06:56:04;6.55;;;4.10;;
71106;SDS011;58763;47.982;11.516;2023-06-24T06:58:29;6.50;;;4.13;;
71106;SDS011;58763;47.982;11.516;2023-06-24T07:00:55;6.10;;;4.00;;
71106;SDS011;58763;47.982;11.516;2023-06-24T07:03:20;6.03;;;3.75;;
71106;SDS011;58763;47.982;11.516;2023-06-24T07:05:46;7.22;;;3.83;;
71106;SDS011;58763;47.982;11.516;2023-06-24T07:08:12;5.68;;;3.85;;
71106;SDS011;58763;47.982;11.516;2023-06-24T07:10:37;6.18;;;3.97;;
71106;SDS011;58763;47.982;11.516;2023-06-24T07:13:03;6.40;;;3.72;;
71106;SDS011;58763;47.982;11.516;2023-06-24T07:15:28;6.55;;;4.10;;
71106;SDS011;58763;47.982;11.516;2023-06-24T07:17:54;5.38;;;3.40;;
71106;SDS011;58763;47.982;11.516;2023-06-24T07:20:20;9.02;;;4.00;;
71106;SDS011;58763;47.982;11.516;2023-06-24T07:22:46;5.63;;;3.85;;
71106;SDS011;58763;47.982;11.516;2023-06-24T07:25:12;5.57;;;3.58;;
71106;SDS011;58763;47.982;11.516;2023-06-24T07:27:37;5.35;;;3.40;;
71106;SDS011;58763;47.982;11.516;2023-06-24T07:30:04;6.13;;;3.92;;
71106;SDS011;58763;47.982;11.516;2023-06-24T07:32:30;6.28;;;4.20;;
71106;SDS011;58763;47.982;11.516;2023-06-24T07:34:56;5.47;;;3.60;;
71106;SDS011;58763;47.982;11.516;2023-06-24T07:37:21;7.03;;;4.20;;
71106;SDS011;58763;47.982;11.516;2023-06-24T07:39:48;5.95;;;3.53;;
71106;SDS011;58763;47.982;11.516;2023-06-24T07:42:13;6.85;;;3.78;;
71106;SDS011;58763;47.982;11.516;2023-06-24T07:44:46;5.28;;;3.28;;
71106;SDS011;58763;47.982;11.516;2023-06-24T07:47:13;6.50;;;3.65;;
71106;SDS011;58763;47.982;11.516;2023-06-24T07:49:38;6.40;;;3.70;;
71106;SDS011;58763;47.982;11.516;2023-06-24T07:52:04;5.10;;;3.10;;
71106;SDS011;58763;47.982;11.516;2023-06-24T07:54:31;6.65;;;3.45;;
71106;SDS011;58763;47.982;11.516;2023-06-24T07:56:57;5.63;;;2.83;;
71106;SDS011;58763;47.982;11.516;2023-06-24T07:59:22;4.72;;;2.90;;
71106;SDS011;58763;47.982;11.516;2023-06-24T08:01:48;5.18;;;3.17;;
71106;SDS011;58763;47.982;11.516;2023-06-24T08:04:14;4.72;;;2.70;;
71106;SDS011;58763;47.982;11.516;2023-06-24T08:06:40;4.95;;;2.63;;
71106;SDS011;58763;47.982;11.516;2023-06-24T08:09:05;5.50;;;2.40;;
71106;SDS011;58763;47.982;11.516;2023-06-24T08:11:31;4.97;;;2.65;;
71106;SDS011;58763;47.982;11.516;2023-06-24T08:13:57;4.55;;;2.47;;
71106;SDS011;58763;47.982;11.516;2023-06-24T08:16:23;4.13;;;2.58;;
71106;SDS011;58763;47.982;11.516;2023-06-24T08:18:48;5.43;;;2.75;;
71106;SDS011;58763;47.982;11.516;2023-06-24T08:21:14;5.70;;;2.65;;
71106;SDS011;58763;47.982;11.516;2023-06-24T08:23:39;4.95;;;2.90;;
71106;SDS011;58763;47.982;11.516;2023-06-24T08:26:06;4.45;;;2.50;;
71106;SDS011;58763;47.982;11.516;2023-06-24T08:28:32;5.10;;;2.58;;
71106;SDS011;58763;47.982;11.516;2023-06-24T08:30:58;5.07;;;2.83;;
71106;SDS011;58763;47.982;11.516;2023-06-24T08:33:23;5.00;;;2.55;;
71106;SDS011;58763;47.982;11.516;2023-06-24T08:35:49;5.32;;;2.80;;
71106;SDS011;58763;47.982;11.516;2023-06-24T08:38:14;5.05;;;2.60;;
71106;SDS011;58763;47.982;11.516;2023-06-24T08:40:40;5.03;;;2.40;;
71106;SDS011;58763;47.982;11.516;2023-06-24T08:43:08;4.47;;;2.63;;
71106;SDS011;58763;47.982;11.516;2023-06-24T08:45:34;4.82;;;2.40;;
71106;SDS011;58763;47.982;11.516;2023-06-24T08:48:00;5.10;;;2.50;;
71106;SDS011;58763;47.982;11.516;2023-06-24T08:50:27;5.35;;;2.75;;
71106;SDS011;58763;47.982;11.516;2023-06-24T08:52:58;5.47;;;2.70;;
71106;SDS011;58763;47.982;11.516;2023-06-24T08:55:27;4.88;;;2.40;;
71106;SDS011;58763;47.982;11.516;2023-06-24T08:57:57;4.93;;;2.88;;
71106;SDS011;58763;47.982;11.516;2023-06-24T09:00:23;5.05;;;2.85;;
71106;SDS011;58763;47.982;11.516;2023-06-24T09:02:49;4.57;;;2.80;;
71106;SDS011;58763;47.982;11.516;2023-06-24T09:05:15;5.30;;;3.00;;
71106;SDS011;58763;47.982;11.516;2023-06-24T09:07:40;5.30;;;2.83;;
71106;SDS011;58763;47.982;11.516;2023-06-24T09:10:06;5.25;;;2.47;;
71106;SDS011;58763;47.982;11.516;2023-06-24T09:12:32;4.82;;;2.70;;
71106;SDS011;58763;47.982;11.516;2023-06-24T09:14:58;4.72;;;2.60;;
71106;SDS011;58763;47.982;11.516;2023-06-24T09:17:23;5.28;;;2.55;;
71106;SDS011;58763;47.982;11.516;2023-06-24T09:19:49;4.97;;;2.90;;
71106;SDS011;58763;47.982;11.516;2023-06-24T09:22:16;5.88;;;3.00;;
71106;SDS011;58763;47.982;11.516;2023-06-24T09:24:45;11.63;;;2.95;;
71106;SDS011;58763;47.982;11.516;2023-06-24T09:27:13;5.25;;;2.50;;
71106;SDS011;58763;47.982;11.516;2023-06-24T09:29:40;4.00;;;2.38;;
71106;SDS011;58763;47.982;11.516;2023-06-24T09:32:06;4.75;;;2.80;;
71106;SDS011;58763;47.982;11.516;2023-06-24T09:34:32;4.90;;;2.58;;
71106;SDS011;58763;47.982;11.516;2023-06-24T09:36:59;4.53;;;2.45;;
71106;SDS011;58763;47.982;11.516;2023-06-24T09:39:25;5.50;;;2.60;;
71106;SDS011;58763;47.982;11.516;2023-06-24T09:44:31;5.65;;;3.10;;
71106;SDS011;58763;47.982;11.516;2023-06-24T09:46:56;4.68;;;2.80;;
71106;SDS011;58763;47.982;11.516;2023-06-24T09:49:22;5.03;;;2.60;;
71106;SDS011;58763;47.982;11.516;2023-06-24T09:51:49;4.18;;;2.45;;
71106;SDS011;58763;47.982;11.516;2023-06-24T09:54:18;4.40;;;2.35;;
71106;SDS011;58763;47.982;11.516;2023-06-24T09:56:47;6.80;;;2.88;;
71106;SDS011;58763;47.982;11.516;2023-06-24T09:59:14;4.85;;;2.72;;
71106;SDS011;58763;47.982;11.516;2023-06-24T10:01:41;5.13;;;2.78;;
71106;SDS011;58763;47.982;11.516;2023-06-24T10:04:09;4.43;;;2.70;;
71106;SDS011;58763;47.982;11.516;2023-06-24T10:06:38;4.05;;;2.30;;
71106;SDS011;58763;47.982;11.516;2023-06-24T10:09:04;5.22;;;2.30;;
71106;SDS011;58763;47.982;11.516;2023-06-24T10:11:30;4.68;;;2.58;;
71106;SDS011;58763;47.982;11.516;2023-06-24T10:13:55;5.10;;;2.63;;
71106;SDS011;58763;47.982;11.516;2023-06-24T10:16:21;4.82;;;2.40;;
71106;SDS011;58763;47.982;11.516;2023-06-24T10:18:47;4.85;;;2.50;;
71106;SDS011;58763;47.982;11.516;2023-06-24T10:21:14;4.60;;;2.15;;
71106;SDS011;58763;47.982;11.516;2023-06-24T10:23:41;4.57;;;2.58;;
71106;SDS011;58763;47.982;11.516;2023-06-24T10:26:24;4.30;;;2.65;;
71106;SDS011;58763;47.982;11.516;2023-06-24T10:36:52;5.82;;;2.75;;
71106;SDS011;58763;47.982;11.516;2023-06-24T10:44:54;4.32;;;2.63;;
71106;SDS011;58763;47.982;11.516;2023-06-24T10:47:24;6.03;;;2.78;;
71106;SDS011;58763;47.982;11.516;2023-06-24T10:49:51;5.22;;;2.75;;
71106;SDS011;58763;47.982;11.516;2023-06-24T10:52:20;4.75;;;2.50;;
71106;SDS011;58763;47.982;11.516;2023-06-24T10:54:47;4.43;;;2.70;;
71106;SDS011;58763;47.982;11.516;2023-06-24T10:57:14;5.97;;;2.53;;
71106;SDS011;58763;47.982;11.516;2023-06-24T10:59:43;5.50;;;2.85;;
71106;SDS011;58763;47.982;11.516;2023-06-24T11:02:18;5.03;;;2.80;;
71106;SDS011;58763;47.982;11.516;2023-06-24T11:04:52;4.90;;;2.63;;
71106;SDS011;58763;47.982;11.516;2023-06-24T11:07:22;4.78;;;2.55;;
71106;SDS011;58763;47.982;11.516;2023-06-24T11:12:34;5.30;;;2.40;;
71106;SDS011;58763;47.982;11.516;2023-06-24T11:15:02;5.22;;;2.63;;
71106;SDS011;58763;47.982;11.516;2023-06-24T11:17:29;4.30;;;2.40;;
71106;SDS011;58763;47.982;11.516;2023-06-24T11:19:55;5.97;;;2.30;;
71106;SDS011;58763;47.982;11.516;2023-06-24T11:22:22;4.50;;;2.30;;
71106;SDS011;58763;47.982;11.516;2023-06-24T11:24:48;4.93;;;2.42;;
71106;SDS011;58763;47.982;11.516;2023-06-24T11:27:14;5.13;;;2.72;;
71106;SDS011;58763;47.982;11.516;2023-06-24T11:29:40;5.13;;;2.40;;
71106;SDS011;58763;47.982;11.516;2023-06-24T11:32:09;6.28;;;2.53;;
71106;SDS011;58763;47.982;11.516;2023-06-24T11:34:35;4.83;;;2.60;;
71106;SDS011;58763;47.982;11.516;2023-06-24T11:37:14;5.88;;;2.70;;
71106;SDS011;58763;47.982;11.516;2023-06-24T11:39:41;4.43;;;2.70;;
71106;SDS011;58763;47.982;11.516;2023-06-24T11:42:07;4.35;;;2.53;;
71106;SDS011;58763;47.982;11.516;2023-06-24T11:44:33;4.65;;;2.80;;
71106;SDS011;58763;47.982;11.516;2023-06-24T11:47:05;5.68;;;2.80;;
71106;SDS011;58763;47.982;11.516;2023-06-24T11:49:32;4.40;;;2.83;;
71106;SDS011;58763;47.982;11.516;2023-06-24T11:54:40;4.75;;;2.55;;
71106;SDS011;58763;47.982;11.516;2023-06-24T11:57:06;6.68;;;2.95;;
71106;SDS011;58763;47.982;11.516;2023-06-24T11:59:31;4.70;;;2.90;;
71106;SDS011;58763;47.982;11.516;2023-06-24T12:01:58;5.95;;;2.97;;
71106;SDS011;58763;47.982;11.516;2023-06-24T12:04:28;6.82;;;2.67;;
71106;SDS011;58763;47.982;11.516;2023-06-24T12:06:54;6.38;;;3.25;;
71106;SDS011;58763;47.982;11.516;2023-06-24T12:09:20;4.50;;;2.67;;
71106;SDS011;58763;47.982;11.516;2023-06-24T12:11:45;5.55;;;2.97;;
71106;SDS011;58763;47.982;11.516;2023-06-24T12:14:11;4.25;;;2.80;;
71106;SDS011;58763;47.982;11.516;2023-06-24T12:16:38;5.28;;;2.70;;
71106;SDS011;58763;47.982;11.516;2023-06-24T12:19:05;4.40;;;2.47;;
71106;SDS011;58763;47.982;11.516;2023-06-24T12:21:31;4.53;;;2.60;;
71106;SDS011;58763;47.982;11.516;2023-06-24T12:23:56;4.82;;;2.90;;
71106;SDS011;58763;47.982;11.516;2023-06-24T12:26:22;5.82;;;2.70;;
71106;SDS011;58763;47.982;11.516;2023-06-24T12:28:47;4.80;;;2.92;;
71106;SDS011;58763;47.982;11.516;2023-06-24T12:31:13;5.43;;;2.50;;
71106;SDS011;58763;47.982;11.516;2023-06-24T12:33:38;6.72;;;3.28;;
71106;SDS011;58763;47.982;11.516;2023-06-24T12:36:04;5.20;;;2.85;;
71106;SDS011;58763;47.982;11.516;2023-06-24T12:38:30;4.70;;;2.67;;
71106;SDS011;58763;47.982;11.516;2023-06-24T12:40:56;5.32;;;3.20;;
71106;SDS011;58763;47.982;11.516;2023-06-24T12:43:22;5.63;;;3.13;;
71106;SDS011;58763;47.982;11.516;2023-06-24T12:45:48;5.22;;;2.90;;
71106;SDS011;58763;47.982;11.516;2023-06-24T12:48:13;4.93;;;2.72;;
71106;SDS011;58763;47.982;11.516;2023-06-24T12:50:39;5.60;;;2.85;;
71106;SDS011;58763;47.982;11.516;2023-06-24T12:53:05;4.82;;;2.70;;
71106;SDS011;58763;47.982;11.516;2023-06-24T12:55:31;4.30;;;2.55;;
71106;SDS011;58763;47.982;11.516;2023-06-24T12:57:56;4.97;;;2.90;;
71106;SDS011;58763;47.982;11.516;2023-06-24T13:00:23;5.28;;;3.20;;
71106;SDS011;58763;47.982;11.516;2023-06-24T13:02:49;5.03;;;2.70;;
71106;SDS011;58763;47.982;11.516;2023-06-24T13:05:15;5.13;;;2.85;;
71106;SDS011;58763;47.982;11.516;2023-06-24T13:07:41;5.13;;;2.90;;
71106;SDS011;58763;47.982;11.516;2023-06-24T13:10:07;4.35;;;2.53;;
71106;SDS011;58763;47.982;11.516;2023-06-24T13:12:33;4.85;;;2.92;;
71106;SDS011;58763;47.982;11.516;2023-06-24T13:15:00;4.68;;;2.72;;
71106;SDS011;58763;47.982;11.516;2023-06-24T13:17:25;4.70;;;2.75;;
71106;SDS011;58763;47.982;11.516;2023-06-24T13:19:51;5.20;;;2.70;;
71106;SDS011;58763;47.982;11.516;2023-06-24T13:22:17;5.35;;;2.63;;
71106;SDS011;58763;47.982;11.516;2023-06-24T13:24:43;4.97;;;2.72;;
71106;SDS011;58763;47.982;11.516;2023-06-24T13:27:09;4.35;;;2.70;;
71106;SDS011;58763;47.982;11.516;2023-06-24T13:29:35;5.13;;;2.85;;
71106;SDS011;58763;47.982;11.516;2023-06-24T13:32:01;4.65;;;2.85;;
71106;SDS011;58763;47.982;11.516;2023-06-24T13:34:26;5.10;;;2.75;;
71106;SDS011;58763;47.982;11.516;2023-06-24T13:36:52;5.90;;;2.72;;
71106;SDS011;58763;47.982;11.516;2023-06-24T13:39:17;4.70;;;2.80;;
71106;SDS011;58763;47.982;11.516;2023-06-24T13:41:46;4.82;;;2.85;;
71106;SDS011;58763;47.982;11.516;2023-06-24T13:44:11;4.63;;;2.58;;
71106;SDS011;58763;47.982;11.516;2023-06-24T13:46:37;5.60;;;2.70;;
71106;SDS011;58763;47.982;11.516;2023-06-24T13:49:02;4.32;;;2.53;;
71106;SDS011;58763;47.982;11.516;2023-06-24T13:51:28;5.07;;;2.92;;
71106;SDS011;58763;47.982;11.516;2023-06-24T13:53:54;4.68;;;2.55;;
71106;SDS011;58763;47.982;11.516;2023-06-24T13:56:20;4.75;;;2.60;;
71106;SDS011;58763;47.982;11.516;2023-06-24T13:58:47;4.43;;;2.83;;
71106;SDS011;58763;47.982;11.516;2023-06-24T14:01:13;5.70;;;2.65;;
71106;SDS011;58763;47.982;11.516;2023-06-24T14:03:38;4.57;;;2.72;;
71106;SDS011;58763;47.982;11.516;2023-06-24T14:06:04;4.63;;;2.75;;
71106;SDS011;58763;47.982;11.516;2023-06-24T14:08:30;4.80;;;2.88;;
71106;SDS011;58763;47.982;11.516;2023-06-24T14:10:57;4.78;;;2.90;;
71106;SDS011;58763;47.982;11.516;2023-06-24T14:13:24;4.65;;;2.72;;
71106;SDS011;58763;47.982;11.516;2023-06-24T14:15:51;5.13;;;2.70;;
71106;SDS011;58763;47.982;11.516;2023-06-24T14:18:17;4.40;;;2.80;;
71106;SDS011;58763;47.982;11.516;2023-06-24T14:20:43;4.40;;;2.70;;
71106;SDS011;58763;47.982;11.516;2023-06-24T14:23:08;6.18;;;2.70;;
71106;SDS011;58763;47.982;11.516;2023-06-24T14:25:34;5.82;;;2.80;;
71106;SDS011;58763;47.982;11.516;2023-06-24T14:28:00;4.75;;;2.75;;
71106;SDS011;58763;47.982;11.516;2023-06-24T14:30:25;4.47;;;2.70;;
71106;SDS011;58763;47.982;11.516;2023-06-24T14:32:51;5.05;;;2.83;;
71106;SDS011;58763;47.982;11.516;2023-06-24T14:35:16;4.65;;;2.88;;
71106;SDS011;58763;47.982;11.516;2023-06-24T14:37:42;4.47;;;2.47;;
71106;SDS011;58763;47.982;11.516;2023-06-24T14:40:07;4.15;;;2.58;;
71106;SDS011;58763;47.982;11.516;2023-06-24T14:42:33;4.90;;;2.70;;
71106;SDS011;58763;47.982;11.516;2023-06-24T14:45:00;5.07;;;3.00;;
71106;SDS011;58763;47.982;11.516;2023-06-24T14:47:25;4.13;;;2.63;;
71106;SDS011;58763;47.982;11.516;2023-06-24T14:49:51;4.80;;;2.60;;
71106;SDS011;58763;47.982;11.516;2023-06-24T14:52:16;6.13;;;2.63;;
71106;SDS011;58763;47.982;11.516;2023-06-24T14:54:42;4.53;;;2.63;;
71106;SDS011;58763;47.982;11.516;2023-06-24T14:57:07;4.90;;;2.63;;
71106;SDS011;58763;47.982;11.516;2023-06-24T14:59:33;5.57;;;2.70;;